createdAt,value
2023-01-29T00:00:10.069Z,3.08
2023-01-29T00:01:11.948Z,2.40
2023-01-29T00:02:13.776Z,2.95
2023-01-29T00:03:16.532Z,3.13
2023-01-29T00:04:18.627Z,2.70
2023-01-29T00:05:27.864Z,2.10
2023-01-29T00:06:30.204Z,2.45
2023-01-29T00:07:32.464Z,2.75
2023-01-29T00:08:38.496Z,2.90
2023-01-29T00:09:40.490Z,2.60
2023-01-29T00:10:42.229Z,3.10
2023-01-29T00:11:43.960Z,3.25
2023-01-29T00:12:45.709Z,2.85
2023-01-29T00:13:47.774Z,3.13
2023-01-29T00:14:49.758Z,2.83
2023-01-29T00:15:56.633Z,2.90
2023-01-29T00:16:58.384Z,2.63
2023-01-29T00:18:00.143Z,2.40
2023-01-29T00:19:02.926Z,3.25
2023-01-29T00:20:05.148Z,2.60
2023-01-29T00:21:15.260Z,2.88
2023-01-29T00:22:17.094Z,2.50
2023-01-29T00:23:19.324Z,2.85
2023-01-29T00:24:21.160Z,2.50
2023-01-29T00:25:23.147Z,2.95
2023-01-29T00:26:25.228Z,2.92
2023-01-29T00:27:26.984Z,3.08
2023-01-29T00:28:28.751Z,3.10
2023-01-29T00:29:30.468Z,2.75
2023-01-29T00:30:32.187Z,3.42
2023-01-29T00:31:34.132Z,3.13
2023-01-29T00:32:36.349Z,3.13
2023-01-29T00:33:38.114Z,2.88
2023-01-29T00:34:39.854Z,3.00
2023-01-29T00:35:42.034Z,2.95
2023-01-29T00:36:45.509Z,3.30
2023-01-29T00:37:47.326Z,3.30
2023-01-29T00:38:58.666Z,3.35
2023-01-29T00:40:00.841Z,3.33
2023-01-29T00:41:32.078Z,3.15
2023-01-29T00:42:52.385Z,3.65
2023-01-29T00:44:12.818Z,4.72
2023-01-29T00:45:15.455Z,3.50
2023-01-29T00:46:17.289Z,4.13
2023-01-29T00:47:45.410Z,4.18
2023-01-29T00:48:47.187Z,4.53
2023-01-29T00:49:48.909Z,4.80
2023-01-29T00:50:50.623Z,4.07
2023-01-29T00:52:28.154Z,3.55
2023-01-29T00:53:30.245Z,3.28
2023-01-29T00:54:33.207Z,3.40
2023-01-29T00:55:35.070Z,3.78
2023-01-29T00:56:37.610Z,4.15
2023-01-29T00:57:39.798Z,3.57
2023-01-29T00:58:41.527Z,3.40
2023-01-29T00:59:43.313Z,3.40
2023-01-29T01:00:45.170Z,3.35
2023-01-29T01:02:05.703Z,3.40
2023-01-29T01:03:07.605Z,3.50
2023-01-29T01:04:11.484Z,3.20
2023-01-29T01:05:17.813Z,3.10
2023-01-29T01:06:19.659Z,3.22
2023-01-29T01:07:21.638Z,3.63
2023-01-29T01:08:42.111Z,3.30
2023-01-29T01:10:02.601Z,3.17
2023-01-29T01:11:07.030Z,3.30
2023-01-29T01:12:08.801Z,3.55
2023-01-29T01:13:11.491Z,3.58
2023-01-29T01:14:13.294Z,3.85
2023-01-29T01:15:15.701Z,2.88
2023-01-29T01:16:18.993Z,3.55
2023-01-29T01:17:20.752Z,3.03
2023-01-29T01:18:22.927Z,3.13
2023-01-29T01:19:24.703Z,2.97
2023-01-29T01:20:28.343Z,3.17
2023-01-29T01:21:30.103Z,3.28
2023-01-29T01:22:31.946Z,3.88
2023-01-29T01:23:33.984Z,3.50
2023-01-29T01:24:35.825Z,3.63
2023-01-29T01:25:37.799Z,3.50
2023-01-29T01:26:39.911Z,3.50
2023-01-29T01:27:42.119Z,3.47
2023-01-29T01:28:44.484Z,3.45
2023-01-29T01:29:46.983Z,3.23
2023-01-29T01:30:48.807Z,3.05
2023-01-29T01:31:50.677Z,3.00
2023-01-29T01:32:53.155Z,3.05
2023-01-29T01:33:55.608Z,3.38
2023-01-29T01:34:57.452Z,3.42
2023-01-29T01:36:02.321Z,3.53
2023-01-29T01:37:04.263Z,3.50
2023-01-29T01:38:06.011Z,4.18
2023-01-29T01:39:07.879Z,3.50
2023-01-29T01:40:18.362Z,3.07
2023-01-29T01:41:22.983Z,3.45
2023-01-29T01:42:30.859Z,3.75
2023-01-29T01:43:48.765Z,3.50
2023-01-29T01:45:04.834Z,3.90
2023-01-29T01:46:06.577Z,3.38
2023-01-29T01:47:08.482Z,3.90
2023-01-29T01:48:19.100Z,3.80
2023-01-29T01:49:21.748Z,3.75
2023-01-29T01:50:40.539Z,3.83
2023-01-29T01:51:49.655Z,4.13
2023-01-29T01:52:57.825Z,3.58
2023-01-29T01:54:09.033Z,4.15
2023-01-29T01:55:14.363Z,4.10
2023-01-29T01:56:24.784Z,4.45
2023-01-29T01:57:28.674Z,3.85
2023-01-29T01:58:40.715Z,4.00
2023-01-29T01:59:50.239Z,4.10
2023-01-29T02:00:52.483Z,4.35
2023-01-29T02:01:54.673Z,4.53
2023-01-29T02:03:14.939Z,4.17
2023-01-29T02:04:45.251Z,4.20
2023-01-29T02:06:06.303Z,3.55
2023-01-29T02:07:29.777Z,3.85
2023-01-29T02:09:10.509Z,4.10
2023-01-29T02:10:17.301Z,3.40
2023-01-29T02:11:19.788Z,3.60
2023-01-29T02:12:22.447Z,4.15
2023-01-29T02:13:24.376Z,4.30
2023-01-29T02:14:26.488Z,4.03
2023-01-29T02:15:28.280Z,3.70
2023-01-29T02:16:30.395Z,3.40
2023-01-29T02:17:32.534Z,3.92
2023-01-29T02:18:38.089Z,4.13
2023-01-29T02:19:39.854Z,3.80
2023-01-29T02:20:48.557Z,4.22
2023-01-29T02:22:11.535Z,4.25
2023-01-29T02:23:44.846Z,4.28
2023-01-29T02:25:11.502Z,4.03
2023-01-29T02:26:46.433Z,3.58
2023-01-29T02:28:09.983Z,3.87
2023-01-29T02:29:34.591Z,3.63
2023-01-29T02:30:57.774Z,3.90
2023-01-29T02:32:17.574Z,3.80
2023-01-29T02:33:24.236Z,4.10
2023-01-29T02:34:53.756Z,3.97
2023-01-29T02:36:31.863Z,3.80
2023-01-29T02:37:39.899Z,4.00
2023-01-29T02:38:55.075Z,4.15
2023-01-29T02:40:20.813Z,3.80
2023-01-29T02:41:38.581Z,4.03
2023-01-29T02:43:09.823Z,4.00
2023-01-29T02:44:34.756Z,4.30
2023-01-29T02:45:48.306Z,4.70
2023-01-29T02:47:24.076Z,4.60
2023-01-29T02:48:29.459Z,4.25
2023-01-29T02:49:50.990Z,4.15
2023-01-29T02:50:59.525Z,3.47
2023-01-29T02:52:05.033Z,4.18
2023-01-29T02:53:16.436Z,4.00
2023-01-29T02:54:39.676Z,5.13
2023-01-29T02:55:47.390Z,4.30
2023-01-29T02:57:05.089Z,4.20
2023-01-29T02:58:31.227Z,3.17
2023-01-29T02:59:41.980Z,3.80
2023-01-29T03:00:46.877Z,4.05
2023-01-29T03:01:55.399Z,4.32
2023-01-29T03:03:17.184Z,4.15
2023-01-29T03:04:27.270Z,4.43
2023-01-29T03:05:45.135Z,4.35
2023-01-29T03:07:10.525Z,4.40
2023-01-29T03:08:16.718Z,4.10
2023-01-29T03:09:36.839Z,4.25
2023-01-29T03:10:53.637Z,4.20
2023-01-29T03:12:01.476Z,4.07
2023-01-29T03:13:15.329Z,4.45
2023-01-29T03:14:25.349Z,4.43
2023-01-29T03:15:31.095Z,4.13
2023-01-29T03:16:47.856Z,4.55
2023-01-29T03:18:02.507Z,4.40
2023-01-29T03:19:16.699Z,4.30
2023-01-29T03:20:22.656Z,4.18
2023-01-29T03:22:12.172Z,4.50
2023-01-29T03:23:52.033Z,4.35
2023-01-29T03:25:18.629Z,4.05
2023-01-29T03:26:41.419Z,4.03
2023-01-29T03:28:23.072Z,4.20
2023-01-29T03:29:43.535Z,4.55
2023-01-29T03:31:08.459Z,4.47
2023-01-29T03:32:11.871Z,4.25
2023-01-29T03:33:18.503Z,3.90
2023-01-29T03:34:34.959Z,4.90
2023-01-29T03:35:41.998Z,4.25
2023-01-29T03:36:56.356Z,4.15
2023-01-29T03:37:58.165Z,4.70
2023-01-29T03:38:59.892Z,4.10
2023-01-29T03:40:04.148Z,5.15
2023-01-29T03:41:48.295Z,4.50
2023-01-29T03:43:08.033Z,4.13
2023-01-29T03:44:34.845Z,4.47
2023-01-29T03:46:02.441Z,4.30
2023-01-29T03:47:23.265Z,3.53
2023-01-29T03:48:37.452Z,4.03
2023-01-29T03:49:57.994Z,4.65
2023-01-29T03:51:05.629Z,4.00
2023-01-29T03:52:12.815Z,4.80
2023-01-29T03:53:33.312Z,4.60
2023-01-29T03:54:48.766Z,3.83
2023-01-29T03:56:02.174Z,4.13
2023-01-29T03:57:19.247Z,3.97
2023-01-29T03:58:26.381Z,3.40
2023-01-29T03:59:34.194Z,4.75
2023-01-29T04:00:45.063Z,3.85
2023-01-29T04:01:57.792Z,4.15
2023-01-29T04:03:26.489Z,4.63
2023-01-29T04:04:40.506Z,4.10
2023-01-29T04:05:53.485Z,3.78
2023-01-29T04:07:00.715Z,4.57
2023-01-29T04:08:08.643Z,4.53
2023-01-29T04:09:23.351Z,4.75
2023-01-29T04:10:29.037Z,4.67
2023-01-29T04:11:33.259Z,5.35
2023-01-29T04:12:59.484Z,4.15
2023-01-29T04:14:01.338Z,4.60
2023-01-29T04:15:09.243Z,4.55
2023-01-29T04:16:18.030Z,4.43
2023-01-29T04:17:25.692Z,4.40
2023-01-29T04:18:28.080Z,4.20
2023-01-29T04:19:30.328Z,3.92
2023-01-29T04:20:32.196Z,3.55
2023-01-29T04:21:37.581Z,5.53
2023-01-29T04:22:40.527Z,5.30
2023-01-29T04:23:42.298Z,4.25
2023-01-29T04:24:44.300Z,4.05
2023-01-29T04:25:51.145Z,4.70
2023-01-29T04:27:07.687Z,5.00
2023-01-29T04:28:45.771Z,4.47
2023-01-29T04:29:50.478Z,4.03
2023-01-29T04:31:04.933Z,4.60
2023-01-29T04:32:15.124Z,4.53
2023-01-29T04:34:09.696Z,3.83
2023-01-29T04:35:31.682Z,3.58
2023-01-29T04:37:03.092Z,4.63
2023-01-29T04:38:16.807Z,3.50
2023-01-29T04:39:38.296Z,3.90
2023-01-29T04:41:11.569Z,3.65
2023-01-29T04:42:26.155Z,3.75
2023-01-29T04:43:44.310Z,4.00
2023-01-29T04:44:45.989Z,4.25
2023-01-29T04:46:11.311Z,3.35
2023-01-29T04:47:19.199Z,3.40
2023-01-29T04:48:33.692Z,4.43
2023-01-29T04:49:50.891Z,4.07
2023-01-29T04:51:18.823Z,3.97
2023-01-29T04:52:29.299Z,2.33
2023-01-29T04:54:02.578Z,3.85
2023-01-29T04:55:13.251Z,3.78
2023-01-29T04:56:35.534Z,4.88
2023-01-29T04:57:52.259Z,4.28
2023-01-29T04:59:02.246Z,4.57
2023-01-29T05:00:21.173Z,2.33
2023-01-29T05:01:25.758Z,3.92
2023-01-29T05:02:28.462Z,4.55
2023-01-29T05:03:32.518Z,3.42
2023-01-29T05:04:35.701Z,4.20
2023-01-29T05:05:43.807Z,4.80
2023-01-29T05:06:47.329Z,4.50
2023-01-29T05:07:49.658Z,4.53
2023-01-29T05:08:52.294Z,4.35
2023-01-29T05:09:54.739Z,4.32
2023-01-29T05:10:58.898Z,4.53
2023-01-29T05:12:02.190Z,3.80
2023-01-29T05:13:08.713Z,4.43
2023-01-29T05:14:14.715Z,4.45
2023-01-29T05:15:24.004Z,4.10
2023-01-29T05:16:41.818Z,4.72
2023-01-29T05:17:43.693Z,3.28
2023-01-29T05:18:46.396Z,4.88
2023-01-29T05:19:48.923Z,3.75
2023-01-29T05:20:51.454Z,4.28
2023-01-29T05:21:53.601Z,3.97
2023-01-29T05:22:55.838Z,3.70
2023-01-29T05:24:20.813Z,4.20
2023-01-29T05:25:26.172Z,2.22
2023-01-29T05:26:46.559Z,3.58
2023-01-29T05:28:14.014Z,3.75
2023-01-29T05:29:16.639Z,3.25
2023-01-29T05:30:18.904Z,5.00
2023-01-29T05:31:20.796Z,4.30
2023-01-29T05:32:22.650Z,4.10
2023-01-29T05:33:29.613Z,4.57
2023-01-29T05:34:31.351Z,4.07
2023-01-29T05:35:34.000Z,2.90
2023-01-29T05:36:35.742Z,4.78
2023-01-29T05:37:37.547Z,4.13
2023-01-29T05:38:39.270Z,4.55
2023-01-29T05:39:41.021Z,4.13
2023-01-29T05:40:43.203Z,4.03
2023-01-29T05:41:45.018Z,4.90
2023-01-29T05:42:46.732Z,4.60
2023-01-29T05:43:48.456Z,4.33
2023-01-29T05:44:50.238Z,5.25
2023-01-29T05:46:01.168Z,5.20
2023-01-29T05:47:02.953Z,3.83
2023-01-29T05:48:04.927Z,4.18
2023-01-29T05:49:06.775Z,4.60
2023-01-29T05:50:09.048Z,4.47
2023-01-29T05:51:10.828Z,5.00
2023-01-29T05:52:12.599Z,3.58
2023-01-29T05:53:14.388Z,4.65
2023-01-29T05:54:16.157Z,3.23
2023-01-29T05:55:18.063Z,5.07
2023-01-29T05:56:19.826Z,4.47
2023-01-29T05:57:22.118Z,5.13
2023-01-29T05:58:23.945Z,3.97
2023-01-29T05:59:25.858Z,4.70
2023-01-29T06:00:27.646Z,4.28
2023-01-29T06:01:29.417Z,4.70
2023-01-29T06:02:31.881Z,4.70
2023-01-29T06:03:33.831Z,4.00
2023-01-29T06:04:35.729Z,4.63
2023-01-29T06:05:40.760Z,5.43
2023-01-29T06:06:42.523Z,3.97
2023-01-29T06:07:45.529Z,4.72
2023-01-29T06:08:47.475Z,5.00
2023-01-29T06:09:49.230Z,4.90
2023-01-29T06:10:51.526Z,4.45
2023-01-29T06:11:53.300Z,5.60
2023-01-29T06:12:55.181Z,5.22
2023-01-29T06:13:56.918Z,4.65
2023-01-29T06:14:58.762Z,5.23
2023-01-29T06:16:00.617Z,4.18
2023-01-29T06:17:02.492Z,5.05
2023-01-29T06:18:04.318Z,4.80
2023-01-29T06:19:06.075Z,4.90
2023-01-29T06:20:08.588Z,5.40
2023-01-29T06:21:13.043Z,4.85
2023-01-29T06:22:14.867Z,5.35
2023-01-29T06:23:16.666Z,5.55
2023-01-29T06:24:18.452Z,5.20
2023-01-29T06:25:20.186Z,5.37
2023-01-29T06:26:22.019Z,6.00
2023-01-29T06:27:23.853Z,5.57
2023-01-29T06:28:25.579Z,5.53
2023-01-29T06:29:27.475Z,5.25
2023-01-29T06:30:29.281Z,5.60
2023-01-29T06:31:39.724Z,5.32
2023-01-29T06:32:41.820Z,5.28
2023-01-29T06:33:43.569Z,5.72
2023-01-29T06:34:46.427Z,5.93
2023-01-29T06:35:49.655Z,6.23
2023-01-29T06:36:51.397Z,4.43
2023-01-29T06:37:53.505Z,5.57
2023-01-29T06:38:55.252Z,6.22
2023-01-29T06:39:57.073Z,5.55
2023-01-29T06:40:59.170Z,5.53
2023-01-29T06:42:00.922Z,5.40
2023-01-29T06:43:02.682Z,5.80
2023-01-29T06:44:04.532Z,5.80
2023-01-29T06:45:06.756Z,5.28
2023-01-29T06:46:08.867Z,5.57
2023-01-29T06:47:10.597Z,5.55
2023-01-29T06:48:12.340Z,5.60
2023-01-29T06:49:14.115Z,6.00
2023-01-29T06:50:16.165Z,5.50
2023-01-29T06:51:18.301Z,5.32
2023-01-29T06:52:20.050Z,5.25
2023-01-29T06:53:22.314Z,5.82
2023-01-29T06:54:24.152Z,5.35
2023-01-29T06:55:26.180Z,5.75
2023-01-29T06:56:27.995Z,4.67
2023-01-29T06:57:30.201Z,4.88
2023-01-29T06:58:32.006Z,4.90
2023-01-29T06:59:33.754Z,5.70
2023-01-29T07:00:36.203Z,5.40
2023-01-29T07:01:41.342Z,6.20
2023-01-29T07:02:43.102Z,5.93
2023-01-29T07:03:45.053Z,5.07
2023-01-29T07:04:46.924Z,8.30
2023-01-29T07:05:52.933Z,7.15
2023-01-29T07:06:54.717Z,5.67
2023-01-29T07:07:56.522Z,5.93
2023-01-29T07:08:58.307Z,5.72
2023-01-29T07:10:00.043Z,5.65
2023-01-29T07:11:02.492Z,5.70
2023-01-29T07:12:04.769Z,6.00
2023-01-29T07:13:06.695Z,6.38
2023-01-29T07:14:08.522Z,6.63
2023-01-29T07:15:12.637Z,7.18
2023-01-29T07:16:14.431Z,6.63
2023-01-29T07:17:16.148Z,6.40
2023-01-29T07:18:17.913Z,7.03
2023-01-29T07:19:19.650Z,6.05
2023-01-29T07:20:21.397Z,6.53
2023-01-29T07:21:23.372Z,6.68
2023-01-29T07:22:25.136Z,6.30
2023-01-29T07:23:26.888Z,5.78
2023-01-29T07:24:28.954Z,5.97
2023-01-29T07:25:31.169Z,5.80
2023-01-29T07:26:32.933Z,5.45
2023-01-29T07:27:34.680Z,5.60
2023-01-29T07:28:38.063Z,6.05
2023-01-29T07:29:39.829Z,5.47
2023-01-29T07:30:41.607Z,6.00
2023-01-29T07:31:43.416Z,5.25
2023-01-29T07:32:45.272Z,5.85
2023-01-29T07:33:47.067Z,5.80
2023-01-29T07:34:48.882Z,4.88
2023-01-29T07:35:50.782Z,6.13
2023-01-29T07:36:55.366Z,7.47
2023-01-29T07:37:57.109Z,6.40
2023-01-29T07:38:58.833Z,5.95
2023-01-29T07:40:00.587Z,4.30
2023-01-29T07:41:03.232Z,4.93
2023-01-29T07:42:05.317Z,5.47
2023-01-29T07:43:09.359Z,6.55
2023-01-29T07:44:11.168Z,4.53
2023-01-29T07:45:13.216Z,5.90
2023-01-29T07:46:15.143Z,5.65
2023-01-29T07:47:17.396Z,4.72
2023-01-29T07:48:19.785Z,6.00
2023-01-29T07:49:21.529Z,9.07
2023-01-29T07:50:25.711Z,7.88
2023-01-29T07:51:27.515Z,6.53
2023-01-29T07:52:33.764Z,7.50
2023-01-29T07:53:36.935Z,5.20
2023-01-29T07:54:38.712Z,6.47
2023-01-29T07:55:40.928Z,6.30
2023-01-29T07:56:42.656Z,5.20
2023-01-29T07:57:44.469Z,4.90
2023-01-29T07:58:46.229Z,5.17
2023-01-29T07:59:47.988Z,4.78
2023-01-29T08:00:50.920Z,4.90
2023-01-29T08:01:52.856Z,5.15
2023-01-29T08:02:54.685Z,5.15
2023-01-29T08:03:56.530Z,5.03
2023-01-29T08:04:58.296Z,4.95
2023-01-29T08:06:00.072Z,4.85
2023-01-29T08:07:01.886Z,4.72
2023-01-29T08:08:07.451Z,3.35
2023-01-29T08:09:10.799Z,4.93
2023-01-29T08:10:12.625Z,3.83
2023-01-29T08:11:15.325Z,4.03
2023-01-29T08:12:17.074Z,3.78
2023-01-29T08:13:18.840Z,4.63
2023-01-29T08:14:20.575Z,5.28
2023-01-29T08:15:22.924Z,4.65
2023-01-29T08:16:24.822Z,5.03
2023-01-29T08:17:26.605Z,3.63
2023-01-29T08:18:47.250Z,4.40
2023-01-29T08:19:49.059Z,4.10
2023-01-29T08:20:52.587Z,4.80
2023-01-29T08:22:02.925Z,4.65
2023-01-29T08:23:07.138Z,4.40
2023-01-29T08:24:08.978Z,4.65
2023-01-29T08:25:10.796Z,4.07
2023-01-29T08:26:12.552Z,5.03
2023-01-29T08:27:14.538Z,4.15
2023-01-29T08:28:16.331Z,5.03
2023-01-29T08:29:18.410Z,4.28
2023-01-29T08:30:20.172Z,4.50
2023-01-29T08:31:22.254Z,3.55
2023-01-29T08:32:24.124Z,4.32
2023-01-29T08:33:38.360Z,5.10
2023-01-29T08:34:41.072Z,4.72
2023-01-29T08:35:42.925Z,5.55
2023-01-29T08:36:44.696Z,4.57
2023-01-29T08:37:56.787Z,4.47
2023-01-29T08:38:58.555Z,5.20
2023-01-29T08:40:00.479Z,5.25
2023-01-29T08:41:02.278Z,5.00
2023-01-29T08:42:04.337Z,5.00
2023-01-29T08:43:09.324Z,5.45
2023-01-29T08:44:11.349Z,5.13
2023-01-29T08:45:17.725Z,5.60
2023-01-29T08:46:19.653Z,5.03
2023-01-29T08:47:21.465Z,5.43
2023-01-29T08:48:24.035Z,5.00
2023-01-29T08:49:25.940Z,4.70
2023-01-29T08:50:30.102Z,4.63
2023-01-29T08:51:31.981Z,5.47
2023-01-29T08:52:33.735Z,4.68
2023-01-29T08:53:35.504Z,5.00
2023-01-29T08:54:37.282Z,5.80
2023-01-29T08:55:41.193Z,5.05
2023-01-29T08:56:43.143Z,5.93
2023-01-29T08:57:44.929Z,6.07
2023-01-29T08:58:46.709Z,5.63
2023-01-29T08:59:48.459Z,5.30
2023-01-29T09:00:50.250Z,5.70
2023-01-29T09:01:52.030Z,5.40
2023-01-29T09:02:53.782Z,6.03
2023-01-29T09:03:55.699Z,5.75
2023-01-29T09:04:57.442Z,4.45
2023-01-29T09:05:59.200Z,5.55
2023-01-29T09:07:00.943Z,5.07
2023-01-29T09:08:03.030Z,5.47
2023-01-29T09:09:04.759Z,5.70
2023-01-29T09:10:06.782Z,5.30
2023-01-29T09:11:09.024Z,4.95
2023-01-29T09:12:10.789Z,6.27
2023-01-29T09:13:12.502Z,6.07
2023-01-29T09:14:14.728Z,5.25
2023-01-29T09:15:16.791Z,5.30
2023-01-29T09:16:18.718Z,5.60
2023-01-29T09:17:20.633Z,5.82
2023-01-29T09:18:22.389Z,6.18
2023-01-29T09:19:24.159Z,5.97
2023-01-29T09:20:25.868Z,6.05
2023-01-29T09:21:27.609Z,5.60
2023-01-29T09:22:29.381Z,5.80
2023-01-29T09:23:31.702Z,6.10
2023-01-29T09:24:34.967Z,6.30
2023-01-29T09:25:37.600Z,7.00
2023-01-29T09:26:40.192Z,7.40
2023-01-29T09:27:42.031Z,6.68
2023-01-29T09:28:43.756Z,5.75
2023-01-29T09:29:45.511Z,5.65
2023-01-29T09:30:47.577Z,5.10
2023-01-29T09:31:49.603Z,6.00
2023-01-29T09:32:54.113Z,5.97
2023-01-29T09:33:56.292Z,5.70
2023-01-29T09:34:58.228Z,5.55
2023-01-29T09:36:02.391Z,5.68
2023-01-29T09:37:04.172Z,5.50
2023-01-29T09:38:05.961Z,5.53
2023-01-29T09:39:07.725Z,5.68
2023-01-29T09:40:26.709Z,5.68
2023-01-29T09:41:55.194Z,5.55
2023-01-29T09:43:01.162Z,6.05
2023-01-29T09:44:09.916Z,5.43
2023-01-29T09:45:21.331Z,5.70
2023-01-29T09:46:44.964Z,5.80
2023-01-29T09:47:48.756Z,6.07
2023-01-29T09:49:07.071Z,6.25
2023-01-29T09:50:18.422Z,5.95
2023-01-29T09:51:44.811Z,6.13
2023-01-29T09:53:01.330Z,5.88
2023-01-29T09:54:20.878Z,5.72
2023-01-29T09:55:39.345Z,5.15
2023-01-29T09:56:44.143Z,5.80
2023-01-29T09:58:32.612Z,5.32
2023-01-29T09:59:34.412Z,6.10
2023-01-29T10:01:18.852Z,6.35
2023-01-29T10:03:11.062Z,5.82
2023-01-29T10:04:41.509Z,5.07
2023-01-29T10:06:11.147Z,5.43
2023-01-29T10:07:42.014Z,5.68
2023-01-29T10:09:01.834Z,5.18
2023-01-29T10:10:13.554Z,6.18
2023-01-29T10:11:54.241Z,5.53
2023-01-29T10:13:24.978Z,5.68
2023-01-29T10:14:57.452Z,5.97
2023-01-29T10:16:16.379Z,5.13
2023-01-29T10:17:54.805Z,6.10
2023-01-29T10:19:10.265Z,4.60
2023-01-29T10:20:33.774Z,3.90
2023-01-29T10:21:56.723Z,4.90
2023-01-29T10:23:04.497Z,5.40
2023-01-29T10:24:08.991Z,6.25
2023-01-29T10:25:15.614Z,5.93
2023-01-29T10:26:27.535Z,5.35
2023-01-29T10:27:34.801Z,5.40
2023-01-29T10:28:50.715Z,6.00
2023-01-29T10:29:55.115Z,5.85
2023-01-29T10:31:03.995Z,6.43
2023-01-29T10:32:06.257Z,6.65
2023-01-29T10:33:27.224Z,5.40
2023-01-29T10:34:43.249Z,5.45
2023-01-29T10:35:50.333Z,4.93
2023-01-29T10:36:53.903Z,6.03
2023-01-29T10:38:01.888Z,6.10
2023-01-29T10:39:03.874Z,6.07
2023-01-29T10:40:24.065Z,5.85
2023-01-29T10:41:54.100Z,5.70
2023-01-29T10:43:09.101Z,4.95
2023-01-29T10:44:16.860Z,5.35
2023-01-29T10:45:24.808Z,5.43
2023-01-29T10:46:29.289Z,5.80
2023-01-29T10:47:49.329Z,5.88
2023-01-29T10:49:18.680Z,5.67
2023-01-29T10:50:49.166Z,5.45
2023-01-29T10:52:05.525Z,5.00
2023-01-29T10:53:37.460Z,5.35
2023-01-29T10:55:08.427Z,5.40
2023-01-29T10:56:39.899Z,4.53
2023-01-29T10:58:10.099Z,4.63
2023-01-29T10:59:26.863Z,5.45
2023-01-29T11:00:33.668Z,5.05
2023-01-29T11:01:35.544Z,4.57
2023-01-29T11:02:37.284Z,5.53
2023-01-29T11:03:39.142Z,5.47
2023-01-29T11:04:40.981Z,5.63
2023-01-29T11:05:51.378Z,5.88
2023-01-29T11:06:53.204Z,5.32
2023-01-29T11:08:03.955Z,5.85
2023-01-29T11:09:19.446Z,5.82
2023-01-29T11:10:23.309Z,5.63
2023-01-29T11:11:50.337Z,5.70
2023-01-29T11:12:53.813Z,4.90
2023-01-29T11:13:59.759Z,5.97
2023-01-29T11:15:24.720Z,5.47
2023-01-29T11:16:29.924Z,5.28
2023-01-29T11:17:31.701Z,5.22
2023-01-29T11:18:55.349Z,5.95
2023-01-29T11:19:57.179Z,5.47
2023-01-29T11:21:04.904Z,5.22
2023-01-29T11:22:16.849Z,5.47
2023-01-29T11:23:31.576Z,5.32
2023-01-29T11:24:33.334Z,5.95
2023-01-29T11:25:36.053Z,6.40
2023-01-29T11:26:42.170Z,5.82
2023-01-29T11:27:51.482Z,5.72
2023-01-29T11:28:53.215Z,5.65
2023-01-29T11:29:56.195Z,5.30
2023-01-29T11:30:58.283Z,5.57
2023-01-29T11:32:03.869Z,5.55
2023-01-29T11:33:09.914Z,5.68
2023-01-29T11:34:25.415Z,7.05
2023-01-29T11:35:35.898Z,5.68
2023-01-29T11:36:39.219Z,5.57
2023-01-29T11:37:47.051Z,6.10
2023-01-29T11:39:07.985Z,6.20
2023-01-29T11:40:19.146Z,6.40
2023-01-29T11:41:22.484Z,6.20
2023-01-29T11:44:01.405Z,6.10
2023-01-29T11:45:03.347Z,7.25
2023-01-29T11:46:11.638Z,5.45
2023-01-29T11:47:16.227Z,5.35
2023-01-29T11:48:27.011Z,5.80
2023-01-29T11:49:34.620Z,5.82
2023-01-29T11:50:36.915Z,6.32
2023-01-29T11:51:41.420Z,6.32
2023-01-29T11:52:44.159Z,5.65
2023-01-29T11:53:52.495Z,5.97
2023-01-29T11:55:06.926Z,5.45
2023-01-29T11:56:25.915Z,5.25
2023-01-29T11:57:34.054Z,5.70
2023-01-29T11:58:36.438Z,5.50
2023-01-29T11:59:48.995Z,5.30
2023-01-29T12:00:54.285Z,5.28
2023-01-29T12:02:02.850Z,8.48
2023-01-29T12:03:20.389Z,7.55
2023-01-29T12:04:24.804Z,7.45
2023-01-29T12:05:27.623Z,5.97
2023-01-29T12:06:42.532Z,6.13
2023-01-29T12:07:46.653Z,5.65
2023-01-29T12:08:57.975Z,6.35
2023-01-29T12:10:00.444Z,6.68
2023-01-29T12:11:23.929Z,6.50
2023-01-29T12:12:41.951Z,6.50
2023-01-29T12:13:43.857Z,5.75
2023-01-29T12:14:45.705Z,6.90
2023-01-29T12:15:48.800Z,6.65
2023-01-29T12:16:54.884Z,9.50
2023-01-29T12:18:13.350Z,8.73
2023-01-29T12:19:20.743Z,7.22
2023-01-29T12:20:28.166Z,6.50
2023-01-29T12:22:11.880Z,5.97
2023-01-29T12:23:36.725Z,6.03
2023-01-29T12:25:08.966Z,5.55
2023-01-29T12:26:54.446Z,5.40
2023-01-29T12:28:09.586Z,5.60
2023-01-29T12:29:34.265Z,5.82
2023-01-29T12:30:53.888Z,6.07
2023-01-29T12:32:20.463Z,5.60
2023-01-29T12:33:43.824Z,4.95
2023-01-29T12:34:53.575Z,5.55
2023-01-29T12:36:05.988Z,5.43
2023-01-29T12:37:41.499Z,4.93
2023-01-29T12:38:45.739Z,6.28
2023-01-29T12:39:49.634Z,5.60
2023-01-29T12:41:22.411Z,6.55
2023-01-29T12:42:25.438Z,6.15
2023-01-29T12:43:43.349Z,6.75
2023-01-29T12:44:51.671Z,5.75
2023-01-29T12:45:56.827Z,5.45
2023-01-29T12:47:02.858Z,5.68
2023-01-29T12:48:11.344Z,5.30
2023-01-29T12:49:25.285Z,6.27
2023-01-29T12:50:32.154Z,5.88
2023-01-29T12:51:51.594Z,5.38
2023-01-29T12:53:20.617Z,5.72
2023-01-29T12:54:35.032Z,5.65
2023-01-29T12:55:48.173Z,5.30
2023-01-29T12:56:54.437Z,5.32
2023-01-29T12:58:00.501Z,5.55
2023-01-29T12:59:32.243Z,5.63
2023-01-29T13:00:40.011Z,5.78
2023-01-29T13:01:55.057Z,6.00
2023-01-29T13:03:17.009Z,5.97
2023-01-29T13:04:53.275Z,5.22
2023-01-29T13:06:04.151Z,5.25
2023-01-29T13:07:21.326Z,5.82
2023-01-29T13:08:32.547Z,5.07
2023-01-29T13:09:38.889Z,5.32
2023-01-29T13:10:48.910Z,5.07
2023-01-29T13:11:58.590Z,4.95
2023-01-29T13:13:42.852Z,5.75
2023-01-29T13:14:49.063Z,5.23
2023-01-29T13:15:53.576Z,5.00
2023-01-29T13:17:07.973Z,6.25
2023-01-29T13:18:40.859Z,5.00
2023-01-29T13:19:45.791Z,5.25
2023-01-29T13:20:49.840Z,4.97
2023-01-29T13:21:54.022Z,5.35
2023-01-29T13:23:01.169Z,5.80
2023-01-29T13:24:18.593Z,6.38
2023-01-29T13:25:20.822Z,5.65
2023-01-29T13:26:27.044Z,5.47
2023-01-29T13:27:33.023Z,5.20
2023-01-29T13:28:37.118Z,5.55
2023-01-29T13:29:39.595Z,5.78
2023-01-29T13:30:43.077Z,6.18
2023-01-29T13:31:48.559Z,5.78
2023-01-29T13:32:52.703Z,5.20
2023-01-29T13:34:12.354Z,6.40
2023-01-29T13:35:15.843Z,5.57
2023-01-29T13:36:28.032Z,6.40
2023-01-29T13:37:32.361Z,5.47
2023-01-29T13:38:35.466Z,5.68
2023-01-29T13:39:46.928Z,5.97
2023-01-29T13:40:50.223Z,5.82
2023-01-29T13:41:53.562Z,5.68
2023-01-29T13:42:58.949Z,5.95
2023-01-29T13:44:04.571Z,5.82
2023-01-29T13:45:09.000Z,6.13
2023-01-29T13:47:14.851Z,5.22
2023-01-29T13:48:34.575Z,5.13
2023-01-29T13:49:47.906Z,5.27
2023-01-29T13:50:51.437Z,5.05
2023-01-29T13:51:56.130Z,4.72
2023-01-29T13:53:03.164Z,5.68
2023-01-29T13:54:18.140Z,5.30
2023-01-29T13:55:30.986Z,6.03
2023-01-29T13:56:32.693Z,4.32
2023-01-29T13:57:47.713Z,5.40
2023-01-29T13:58:53.444Z,4.60
2023-01-29T13:59:56.361Z,5.20
2023-01-29T14:01:00.419Z,5.40
2023-01-29T14:02:04.516Z,5.03
2023-01-29T14:03:11.679Z,5.85
2023-01-29T14:04:19.317Z,5.50
2023-01-29T14:05:29.729Z,5.68
2023-01-29T14:06:43.809Z,5.88
2023-01-29T14:07:45.508Z,5.80
2023-01-29T14:08:47.856Z,5.72
2023-01-29T14:09:49.679Z,5.63
2023-01-29T14:11:17.179Z,6.05
2023-01-29T14:12:21.941Z,5.63
2023-01-29T14:13:28.147Z,5.97
2023-01-29T14:14:48.207Z,6.15
2023-01-29T14:15:58.840Z,5.40
2023-01-29T14:17:03.770Z,5.45
2023-01-29T14:18:13.192Z,6.18
2023-01-29T14:19:19.141Z,5.95
2023-01-29T14:20:27.710Z,6.20
2023-01-29T14:21:37.064Z,6.18
2023-01-29T14:22:38.873Z,5.75
2023-01-29T14:23:54.687Z,5.77
2023-01-29T14:25:01.827Z,5.72
2023-01-29T14:26:06.358Z,5.82
2023-01-29T14:27:21.799Z,5.40
2023-01-29T14:28:28.488Z,5.90
2023-01-29T14:29:35.668Z,5.72
2023-01-29T14:30:38.066Z,6.05
2023-01-29T14:31:42.066Z,5.22
2023-01-29T14:32:48.023Z,5.65
2023-01-29T14:33:52.638Z,5.40
2023-01-29T14:35:10.212Z,5.23
2023-01-29T14:36:14.540Z,4.63
2023-01-29T14:37:16.233Z,5.65
2023-01-29T14:38:18.174Z,5.65
2023-01-29T14:39:31.206Z,6.15
2023-01-29T14:40:36.816Z,5.72
2023-01-29T14:41:38.653Z,5.43
2023-01-29T14:43:00.591Z,5.45
2023-01-29T14:44:43.810Z,5.28
2023-01-29T14:45:47.089Z,4.72
2023-01-29T14:46:49.549Z,5.63
2023-01-29T14:47:51.243Z,4.80
2023-01-29T14:48:53.367Z,5.60
2023-01-29T14:50:00.137Z,6.05
2023-01-29T14:51:09.753Z,5.03
2023-01-29T14:52:13.199Z,4.75
2023-01-29T14:53:23.775Z,5.63
2023-01-29T14:54:33.613Z,5.53
2023-01-29T14:55:49.355Z,5.18
2023-01-29T14:57:02.386Z,5.10
2023-01-29T14:58:04.983Z,5.67
2023-01-29T14:59:39.175Z,5.88
2023-01-29T15:00:46.217Z,5.25
2023-01-29T15:02:00.607Z,5.40
2023-01-29T15:03:04.991Z,5.30
2023-01-29T15:04:15.587Z,5.68
2023-01-29T15:05:21.659Z,5.70
2023-01-29T15:06:42.820Z,5.68
2023-01-29T15:08:04.655Z,4.75
2023-01-29T15:09:26.779Z,5.15
2023-01-29T15:10:39.999Z,5.10
2023-01-29T15:12:03.251Z,5.25
2023-01-29T15:13:24.744Z,4.63
2023-01-29T15:14:32.799Z,5.07
2023-01-29T15:15:42.388Z,5.05
2023-01-29T15:16:51.124Z,5.05
2023-01-29T15:17:59.281Z,4.70